createdAt,value
2023-01-11T00:00:49.482Z,14.20
2023-01-11T00:03:16.616Z,11.10
2023-01-11T00:05:43.542Z,10.35
2023-01-11T00:08:10.490Z,10.45
2023-01-11T00:10:37.423Z,12.63
2023-01-11T00:13:04.393Z,11.15
2023-01-11T00:15:31.458Z,10.18
2023-01-11T00:17:58.360Z,13.20
2023-01-11T00:20:25.296Z,13.00
2023-01-11T00:22:52.248Z,11.32
2023-01-11T00:25:19.163Z,10.00
2023-01-11T00:27:46.050Z,11.23
2023-01-11T00:30:12.940Z,12.50
2023-01-11T00:32:39.863Z,11.73
2023-01-11T00:35:08.908Z,11.50
2023-01-11T00:37:35.825Z,11.90
2023-01-11T00:40:02.766Z,11.30
2023-01-11T00:42:29.689Z,12.65
2023-01-11T00:44:56.618Z,12.02
2023-01-11T00:47:23.547Z,11.77
2023-01-11T00:49:50.503Z,10.32
2023-01-11T00:52:17.417Z,9.65
2023-01-11T00:54:44.304Z,10.25
2023-01-11T00:57:11.225Z,11.43
2023-01-11T00:59:38.176Z,11.93
2023-01-11T01:02:05.074Z,16.02
2023-01-11T01:04:31.972Z,11.45
2023-01-11T01:06:58.875Z,11.65
2023-01-11T01:09:25.798Z,14.35
2023-01-11T01:11:52.740Z,11.70
2023-01-11T01:14:19.667Z,11.43
2023-01-11T01:16:46.575Z,9.68
2023-01-11T01:19:13.501Z,9.95
2023-01-11T01:21:40.436Z,12.05
2023-01-11T01:24:07.357Z,11.40
2023-01-11T01:26:34.245Z,11.40
2023-01-11T01:29:01.265Z,12.55
2023-01-11T01:31:28.233Z,10.90
2023-01-11T01:33:55.173Z,9.27
2023-01-11T01:36:22.088Z,9.02
2023-01-11T01:38:49.008Z,10.63
2023-01-11T01:41:15.917Z,12.50
2023-01-11T01:43:42.836Z,11.07
2023-01-11T01:46:09.774Z,9.95
2023-01-11T01:48:36.729Z,9.57
2023-01-11T01:51:03.648Z,11.05
2023-01-11T01:53:30.551Z,9.57
2023-01-11T01:55:57.431Z,11.07
2023-01-11T01:58:24.341Z,10.20
2023-01-11T02:00:51.228Z,10.45
2023-01-11T02:03:18.150Z,10.60
2023-01-11T02:05:45.072Z,11.55
2023-01-11T02:08:11.982Z,11.25
2023-01-11T02:10:38.892Z,10.32
2023-01-11T02:13:05.785Z,7.78
2023-01-11T02:15:32.698Z,12.10
2023-01-11T02:17:59.645Z,9.65
2023-01-11T02:20:26.573Z,10.52
2023-01-11T02:22:53.511Z,10.98
2023-01-11T02:25:20.424Z,9.00
2023-01-11T02:27:47.393Z,9.13
2023-01-11T02:30:19.251Z,9.63
2023-01-11T02:32:48.093Z,9.10
2023-01-11T02:35:18.408Z,8.63
2023-01-11T02:40:28.971Z,8.80
2023-01-11T02:42:56.247Z,9.45
2023-01-11T02:45:24.474Z,9.40
2023-01-11T02:47:53.144Z,9.07
2023-01-11T02:50:22.578Z,9.52
2023-01-11T02:52:52.404Z,7.35
2023-01-11T02:55:24.619Z,10.57
2023-01-11T02:57:54.615Z,9.60
2023-01-11T03:00:22.579Z,7.35
2023-01-11T03:02:49.623Z,7.05
2023-01-11T03:05:16.759Z,7.18
2023-01-11T03:07:46.576Z,9.25
2023-01-11T03:10:14.826Z,9.57
2023-01-11T03:12:44.361Z,8.40
2023-01-11T03:15:11.274Z,7.38
2023-01-11T03:17:38.172Z,6.30
2023-01-11T03:20:05.072Z,9.65
2023-01-11T03:22:31.959Z,5.50
2023-01-11T03:24:58.887Z,8.80
2023-01-11T03:27:25.793Z,6.65
2023-01-11T03:29:52.704Z,6.05
2023-01-11T03:32:19.607Z,8.10
2023-01-11T03:34:46.543Z,8.30
2023-01-11T03:37:13.591Z,5.63
2023-01-11T03:39:40.539Z,9.32
2023-01-11T03:42:07.454Z,7.65
2023-01-11T03:44:34.379Z,6.78
2023-01-11T03:47:01.350Z,5.65
2023-01-11T03:49:28.515Z,5.65
2023-01-11T03:51:55.416Z,6.38
2023-01-11T03:54:22.310Z,9.23
2023-01-11T03:56:49.233Z,6.57
2023-01-11T03:59:16.140Z,6.00
2023-01-11T04:01:43.126Z,5.55
2023-01-11T04:04:10.088Z,5.43
2023-01-11T04:06:37.031Z,5.68
2023-01-11T04:09:03.972Z,5.10
2023-01-11T04:11:30.881Z,8.02
2023-01-11T04:13:57.815Z,8.20
2023-01-11T04:16:24.722Z,7.38
2023-01-11T04:18:51.705Z,6.30
2023-01-11T04:21:18.609Z,5.25
2023-01-11T04:23:45.523Z,7.40
2023-01-11T04:26:12.463Z,5.72
2023-01-11T04:28:54.116Z,5.15
2023-01-11T04:31:29.550Z,7.57
2023-01-11T04:36:41.138Z,5.00
2023-01-11T04:41:49.206Z,4.80
2023-01-11T04:44:30.277Z,3.40
2023-01-11T04:46:57.492Z,4.22
2023-01-11T04:49:24.634Z,4.90
2023-01-11T04:51:53.633Z,4.65
2023-01-11T04:54:20.579Z,5.07
2023-01-11T04:56:47.483Z,4.20
2023-01-11T04:59:14.466Z,2.72
2023-01-11T05:01:41.625Z,5.53
2023-01-11T05:04:08.913Z,5.10
2023-01-11T05:06:38.731Z,4.53
2023-01-11T05:09:13.140Z,3.28
2023-01-11T05:11:40.070Z,3.53
2023-01-11T05:14:07.203Z,4.28
2023-01-11T05:16:34.158Z,6.80
2023-01-11T05:19:01.278Z,4.10
2023-01-11T05:21:30.987Z,4.25
2023-01-11T05:23:57.931Z,5.50
2023-01-11T05:26:24.907Z,4.93
2023-01-11T05:28:51.841Z,4.45
2023-01-11T05:31:18.840Z,3.97
2023-01-11T05:33:45.863Z,3.42
2023-01-11T05:36:12.819Z,4.93
2023-01-11T05:38:39.752Z,2.97
2023-01-11T05:41:06.687Z,3.13
2023-01-11T05:43:33.656Z,4.65
2023-01-11T05:46:00.635Z,3.92
2023-01-11T05:48:27.539Z,3.42
2023-01-11T05:50:54.526Z,3.17
2023-01-11T05:53:21.497Z,5.45
2023-01-11T05:55:48.423Z,4.10
2023-01-11T05:58:15.309Z,3.20
2023-01-11T06:00:42.225Z,4.60
2023-01-11T06:03:09.169Z,5.40
2023-01-11T06:05:36.090Z,5.75
2023-01-11T06:08:03.035Z,6.40
2023-01-11T06:10:29.956Z,6.65
2023-01-11T06:12:56.845Z,5.88
2023-01-11T06:15:23.798Z,3.53
2023-01-11T06:17:50.702Z,4.35
2023-01-11T06:20:17.630Z,4.10
2023-01-11T06:22:44.544Z,3.78
2023-01-11T06:25:11.440Z,3.67
2023-01-11T06:27:38.335Z,4.22
2023-01-11T06:30:05.256Z,2.65
2023-01-11T06:32:32.171Z,3.55
2023-01-11T06:35:11.251Z,3.72
2023-01-11T06:37:40.808Z,3.38
2023-01-11T06:40:07.935Z,3.55
2023-01-11T06:42:34.827Z,4.57
2023-01-11T06:45:01.897Z,4.15
2023-01-11T06:47:42.516Z,3.80
2023-01-11T06:50:23.356Z,2.60
2023-01-11T06:55:38.187Z,4.05
2023-01-11T06:58:11.973Z,3.20
2023-01-11T07:00:39.017Z,2.88
2023-01-11T07:03:06.130Z,3.67
2023-01-11T07:05:33.107Z,2.78
2023-01-11T07:08:00.123Z,3.80
2023-01-11T07:10:27.092Z,3.60
2023-01-11T07:12:54.024Z,3.47
2023-01-11T07:15:20.938Z,4.22
2023-01-11T07:17:47.837Z,3.67
2023-01-11T07:20:14.776Z,2.53
2023-01-11T07:22:41.696Z,4.68
2023-01-11T07:25:08.616Z,3.28
2023-01-11T07:27:35.518Z,3.20
2023-01-11T07:30:02.429Z,3.13
2023-01-11T07:32:29.308Z,3.92
2023-01-11T07:34:56.265Z,3.42
2023-01-11T07:37:28.083Z,4.32
2023-01-11T07:39:56.101Z,4.38
2023-01-11T07:42:22.995Z,3.63
2023-01-11T07:44:49.907Z,2.90
2023-01-11T07:47:16.838Z,3.55
2023-01-11T07:49:43.913Z,2.90
2023-01-11T07:52:10.814Z,3.00
2023-01-11T07:54:37.737Z,3.30
2023-01-11T07:57:04.667Z,3.17
2023-01-11T07:59:31.564Z,2.97
2023-01-11T08:01:58.461Z,3.42
2023-01-11T08:04:25.397Z,5.82
2023-01-11T08:06:57.952Z,3.95
2023-01-11T08:12:15.618Z,2.45
2023-01-11T08:17:34.414Z,3.08
2023-01-11T08:22:57.335Z,3.25
2023-01-11T08:25:24.287Z,3.75
2023-01-11T08:27:51.247Z,2.88
2023-01-11T08:30:31.406Z,3.78
2023-01-11T08:32:58.424Z,3.80
2023-01-11T08:35:37.470Z,3.05
2023-01-11T08:38:40.359Z,3.83
2023-01-11T08:41:10.345Z,4.32
2023-01-11T08:43:37.267Z,3.05
2023-01-11T08:46:06.130Z,5.13
2023-01-11T08:48:33.071Z,3.22
2023-01-11T08:51:06.254Z,2.88
2023-01-11T08:53:33.336Z,2.65
2023-01-11T08:56:00.411Z,1.98
2023-01-11T08:58:27.292Z,3.92
2023-01-11T09:00:56.238Z,3.42
2023-01-11T09:03:23.157Z,2.92
2023-01-11T09:05:50.081Z,4.93
2023-01-11T09:08:17.000Z,2.72
2023-01-11T09:10:47.121Z,3.22
2023-01-11T09:13:16.990Z,4.80
2023-01-11T09:15:50.470Z,2.25
2023-01-11T09:18:17.541Z,3.72
2023-01-11T09:20:52.211Z,5.78
2023-01-11T09:23:19.131Z,2.67
2023-01-11T09:25:51.378Z,5.85
2023-01-11T09:28:22.345Z,4.90
2023-01-11T09:30:50.634Z,4.03
2023-01-11T09:33:17.688Z,5.07
2023-01-11T09:35:44.583Z,5.68
2023-01-11T09:38:11.483Z,7.68
2023-01-11T09:40:38.398Z,8.18
2023-01-11T09:43:05.374Z,6.72
2023-01-11T09:45:35.098Z,6.30
2023-01-11T09:48:02.003Z,6.68
2023-01-11T09:50:28.933Z,5.50
2023-01-11T09:52:55.832Z,4.20
2023-01-11T09:55:22.742Z,4.05
2023-01-11T09:57:49.650Z,1.75
2023-01-11T10:00:16.599Z,3.83
2023-01-11T10:02:43.505Z,4.70
2023-01-11T10:05:10.475Z,2.58
2023-01-11T10:07:37.436Z,4.13
2023-01-11T10:18:31.924Z,4.45
2023-01-11T10:18:48.892Z,6.63
2023-01-11T10:21:12.030Z,5.70
2023-01-11T10:23:38.986Z,6.68
2023-01-11T10:26:05.892Z,6.50
2023-01-11T10:28:32.766Z,7.90
2023-01-11T10:30:59.708Z,9.65
2023-01-11T10:33:26.630Z,8.27
2023-01-11T10:35:53.555Z,7.53
2023-01-11T10:38:20.457Z,10.23
2023-01-11T10:40:47.378Z,6.95
2023-01-11T10:43:14.282Z,10.00
2023-01-11T10:45:41.301Z,7.72
2023-01-11T10:48:08.220Z,7.18
2023-01-11T10:50:35.126Z,9.38
2023-01-11T10:53:02.031Z,9.07
2023-01-11T10:55:28.973Z,9.98
2023-01-11T10:57:59.694Z,8.40
2023-01-11T11:00:29.131Z,6.65
2023-01-11T11:02:56.059Z,10.13
2023-01-11T11:05:22.980Z,10.80
2023-01-11T11:07:49.917Z,7.95
2023-01-11T11:10:16.805Z,7.63
2023-01-11T11:12:43.714Z,9.15
2023-01-11T11:15:10.656Z,6.15
2023-01-11T11:17:37.574Z,11.90
2023-01-11T11:20:04.488Z,5.30
2023-01-11T11:22:31.405Z,7.70
2023-01-11T11:24:58.307Z,7.07
2023-01-11T11:27:25.249Z,6.80
2023-01-11T11:29:52.161Z,8.15
2023-01-11T11:32:19.095Z,7.85
2023-01-11T11:34:45.983Z,7.43
2023-01-11T11:37:26.939Z,9.27
2023-01-11T11:45:27.718Z,8.50
2023-01-11T11:47:55.352Z,7.35
2023-01-11T11:50:42.468Z,7.90
2023-01-11T11:53:09.188Z,8.82
2023-01-11T11:55:39.366Z,6.85
2023-01-11T11:58:10.595Z,7.87
2023-01-11T12:00:37.557Z,6.88
2023-01-11T12:03:04.517Z,10.10
2023-01-11T12:05:31.506Z,7.70
2023-01-11T12:07:58.465Z,6.55
2023-01-11T12:10:25.399Z,7.75
2023-01-11T12:12:52.326Z,7.70
2023-01-11T12:15:19.238Z,6.25
2023-01-11T12:17:46.182Z,6.53
2023-01-11T12:31:14.673Z,8.38
2023-01-11T12:36:28.224Z,6.78
2023-01-11T12:38:55.154Z,7.75
2023-01-11T12:41:22.073Z,6.75
2023-01-11T12:43:48.990Z,9.55
2023-01-11T12:46:16.003Z,9.82
2023-01-11T12:48:42.920Z,10.45
2023-01-11T12:51:09.848Z,9.38
2023-01-11T12:53:36.745Z,10.32
2023-01-11T12:56:03.655Z,11.25
2023-01-11T12:58:30.546Z,8.63
2023-01-11T13:00:57.441Z,9.55
2023-01-11T13:03:24.407Z,11.30
2023-01-11T13:05:51.304Z,10.65
2023-01-11T13:08:18.223Z,7.10
2023-01-11T13:10:45.226Z,8.23
2023-01-11T13:13:12.172Z,7.72
2023-01-11T13:15:39.211Z,11.45
2023-01-11T13:18:06.164Z,8.82
2023-01-11T13:20:40.480Z,10.23
2023-01-11T13:23:15.939Z,9.93
2023-01-11T13:25:42.865Z,9.00
2023-01-11T13:28:13.625Z,10.25
2023-01-11T13:30:43.562Z,10.90
2023-01-11T13:33:10.508Z,11.38
2023-01-11T13:35:37.424Z,9.27
2023-01-11T13:38:04.343Z,8.65
2023-01-11T13:40:31.256Z,10.57
2023-01-11T13:43:12.299Z,9.80
2023-01-11T13:45:39.197Z,10.73
2023-01-11T13:48:06.128Z,12.23
2023-01-11T13:50:33.059Z,9.63
2023-01-11T13:53:01.939Z,10.63
2023-01-11T13:55:30.319Z,10.20
2023-01-11T13:57:57.222Z,9.70
2023-01-11T14:00:24.137Z,10.57
2023-01-11T14:02:51.047Z,12.52
2023-01-11T14:05:17.969Z,13.43
2023-01-11T14:07:44.902Z,12.15
2023-01-11T14:10:11.872Z,10.23
2023-01-11T14:12:38.785Z,13.35
2023-01-11T14:15:05.700Z,11.15
2023-01-11T14:17:32.615Z,13.23
2023-01-11T14:19:59.501Z,13.63
2023-01-11T14:22:26.405Z,13.07
2023-01-11T14:24:53.441Z,9.25
2023-01-11T14:27:20.428Z,11.20
2023-01-11T14:29:47.394Z,12.48
2023-01-11T14:32:14.401Z,10.73
2023-01-11T14:34:41.286Z,12.13
2023-01-11T14:37:08.204Z,12.80
2023-01-11T14:39:35.134Z,12.38
2023-01-11T14:42:02.102Z,14.07
2023-01-11T14:44:29.001Z,14.65
2023-01-11T14:46:56.004Z,15.48
2023-01-11T14:49:22.951Z,11.63
2023-01-11T14:51:49.893Z,14.43
2023-01-11T14:54:16.924Z,14.27
2023-01-11T14:56:43.892Z,14.23
2023-01-11T14:59:10.809Z,13.20
2023-01-11T15:01:37.953Z,13.10
2023-01-11T15:04:04.911Z,12.07
2023-01-11T15:06:31.819Z,10.82
2023-01-11T15:08:58.731Z,11.02
2023-01-11T15:11:25.669Z,13.98
2023-01-11T15:13:52.597Z,10.80
2023-01-11T15:16:19.628Z,15.60
2023-01-11T15:18:46.570Z,16.45
2023-01-11T15:21:13.508Z,18.63
2023-01-11T15:23:40.404Z,12.00
2023-01-11T15:26:07.352Z,14.85
2023-01-11T15:28:34.410Z,16.23
2023-01-11T15:31:01.377Z,15.13
2023-01-11T15:33:28.357Z,15.75
2023-01-11T15:35:55.320Z,12.98
2023-01-11T15:38:23.306Z,13.40
2023-01-11T15:40:51.265Z,13.90
2023-01-11T15:43:18.206Z,16.17
2023-01-11T15:45:45.099Z,12.68
2023-01-11T15:48:12.009Z,16.20
2023-01-11T15:50:38.893Z,15.00
2023-01-11T15:53:05.811Z,11.40
2023-01-11T15:55:32.745Z,15.93
2023-01-11T15:57:59.702Z,15.75
2023-01-11T16:00:26.713Z,15.15
2023-01-11T16:02:53.906Z,12.82
2023-01-11T16:05:20.803Z,15.43
2023-01-11T16:07:47.770Z,12.40
2023-01-11T16:10:14.986Z,19.38
2023-01-11T16:12:41.927Z,13.85
2023-01-11T16:15:08.834Z,15.73
2023-01-11T16:17:35.774Z,13.07
2023-01-11T16:20:02.836Z,17.23
2023-01-11T16:22:29.814Z,14.23
2023-01-11T16:24:56.708Z,17.77
2023-01-11T16:27:23.660Z,14.43
2023-01-11T16:29:50.583Z,14.50
2023-01-11T16:32:17.475Z,15.30
2023-01-11T16:34:44.367Z,12.70
2023-01-11T16:37:11.280Z,17.52
2023-01-11T16:39:38.181Z,13.43
2023-01-11T16:42:05.066Z,12.00
2023-01-11T16:44:32.146Z,15.40
2023-01-11T16:46:59.077Z,15.82
2023-01-11T16:49:25.985Z,12.98
2023-01-11T16:51:52.891Z,14.63
2023-01-11T16:54:19.865Z,13.52
2023-01-11T16:56:46.780Z,12.63
2023-01-11T16:59:13.684Z,15.60
2023-01-11T17:01:40.603Z,11.27
2023-01-11T17:04:12.715Z,13.40
2023-01-11T17:06:44.932Z,16.90
2023-01-11T17:09:16.467Z,13.18
2023-01-11T17:11:46.601Z,13.75
2023-01-11T17:14:13.538Z,13.20
2023-01-11T17:16:40.494Z,15.75
2023-01-11T17:19:07.488Z,12.40
2023-01-11T17:21:34.446Z,12.70
2023-01-11T17:24:01.404Z,16.40
2023-01-11T17:26:28.487Z,12.63
2023-01-11T17:28:55.580Z,10.48
2023-01-11T17:31:22.541Z,12.55
2023-01-11T17:33:49.472Z,12.45
2023-01-11T17:36:16.377Z,12.65
2023-01-11T17:38:43.287Z,12.90
2023-01-11T17:41:10.216Z,14.38
2023-01-11T17:43:37.169Z,14.55
2023-01-11T17:46:04.143Z,12.35
2023-01-11T17:48:31.161Z,15.60
2023-01-11T17:53:42.715Z,11.25
2023-01-11T17:56:09.859Z,14.55
2023-01-11T17:58:36.790Z,18.38
2023-01-11T18:01:03.771Z,17.95
2023-01-11T18:03:30.730Z,13.77
2023-01-11T18:05:57.733Z,12.13
2023-01-11T18:08:24.681Z,16.92
2023-01-11T18:10:51.589Z,15.00
2023-01-11T18:13:18.501Z,13.52
2023-01-11T18:15:45.419Z,15.90
2023-01-11T18:18:12.332Z,12.75
2023-01-11T18:20:39.243Z,16.98
2023-01-11T18:23:06.127Z,13.25
2023-01-11T18:25:33.148Z,16.00
2023-01-11T18:28:00.061Z,15.10
2023-01-11T18:30:27.028Z,16.17
2023-01-11T18:32:53.942Z,16.13
2023-01-11T18:35:20.846Z,13.32
2023-01-11T18:37:47.738Z,13.20
2023-01-11T18:40:14.651Z,18.80
2023-01-11T18:42:41.546Z,15.57
2023-01-11T18:45:08.464Z,14.18
2023-01-11T18:47:35.373Z,13.85
2023-01-11T18:50:02.273Z,15.57
2023-01-11T18:52:29.172Z,18.27
2023-01-11T18:54:56.116Z,16.90
2023-01-11T18:57:23.019Z,21.38
2023-01-11T18:59:49.983Z,20.92
2023-01-11T19:02:17.828Z,22.33
2023-01-11T19:04:44.880Z,22.33
2023-01-11T19:07:11.800Z,29.00
2023-01-11T19:09:38.711Z,20.65
2023-01-11T19:12:05.592Z,20.45
2023-01-11T19:14:32.520Z,19.45
2023-01-11T19:16:59.401Z,21.08
2023-01-11T19:19:26.310Z,19.42
2023-01-11T19:21:53.248Z,16.17
2023-01-11T19:24:20.192Z,14.98
2023-01-11T19:26:47.157Z,16.60
2023-01-11T19:29:14.125Z,16.45
2023-01-11T19:31:41.023Z,12.43
2023-01-11T19:34:07.904Z,15.75
2023-01-11T19:36:34.831Z,13.52
2023-01-11T19:39:01.749Z,14.73
2023-01-11T19:41:28.662Z,12.85
2023-01-11T19:43:55.585Z,17.63
2023-01-11T19:46:31.308Z,16.80
2023-01-11T19:48:59.174Z,16.15
2023-01-11T19:51:26.074Z,15.40
2023-01-11T19:53:53.000Z,11.85
2023-01-11T19:56:19.929Z,14.82
2023-01-11T19:58:46.839Z,17.58
2023-01-11T20:01:13.811Z,14.82
2023-01-11T20:03:40.745Z,19.27
2023-01-11T20:06:07.654Z,12.93
2023-01-11T20:08:34.544Z,17.17
2023-01-11T20:11:01.519Z,13.02
2023-01-11T20:13:28.504Z,16.52
2023-01-11T20:15:55.458Z,13.52
2023-01-11T20:18:22.439Z,13.55
2023-01-11T20:20:49.444Z,13.52
2023-01-11T20:23:16.342Z,17.33
2023-01-11T20:25:45.147Z,17.40
2023-01-11T20:28:12.049Z,13.68
2023-01-11T20:30:38.991Z,15.40
2023-01-11T20:33:05.941Z,16.58
2023-01-11T20:35:32.872Z,17.35
2023-01-11T20:37:59.958Z,17.58
2023-01-11T20:40:26.953Z,16.23
2023-01-11T20:42:53.844Z,17.35
2023-01-11T20:45:27.991Z,13.82
2023-01-11T20:47:54.899Z,18.27
2023-01-11T20:50:21.833Z,16.20
2023-01-11T20:52:48.741Z,16.77
2023-01-11T20:55:15.767Z,16.95
2023-01-11T20:57:42.761Z,20.65
2023-01-11T21:02:36.660Z,17.05
2023-01-11T21:05:03.652Z,17.27
2023-01-11T21:07:30.607Z,18.10
2023-01-11T21:09:57.627Z,22.98
2023-01-11T21:12:24.537Z,15.70
2023-01-11T21:14:51.560Z,17.35
2023-01-11T21:17:18.496Z,19.05
2023-01-11T21:19:48.252Z,14.25
2023-01-11T21:22:17.933Z,14.00
2023-01-11T21:24:44.892Z,16.73
2023-01-11T21:27:11.977Z,16.75
2023-01-11T21:29:41.128Z,17.52
2023-01-11T21:32:08.042Z,17.90
2023-01-11T21:34:34.974Z,18.58
2023-01-11T21:37:02.225Z,18.52
2023-01-11T21:39:29.152Z,18.52
2023-01-11T21:41:57.098Z,14.50
2023-01-11T21:44:26.448Z,21.05
2023-01-11T21:46:54.112Z,14.52
2023-01-11T21:49:21.135Z,16.25
2023-01-11T21:51:48.049Z,17.55
2023-01-11T21:54:14.998Z,15.20
2023-01-11T21:56:42.107Z,13.30
2023-01-11T21:59:09.028Z,19.45
2023-01-11T22:01:35.970Z,19.13
2023-01-11T22:04:02.959Z,15.95
2023-01-11T22:06:29.900Z,17.45
2023-01-11T22:08:56.843Z,18.25
2023-01-11T22:11:23.907Z,19.50
2023-01-11T22:13:50.827Z,19.90
2023-01-11T22:16:17.864Z,15.77
2023-01-11T22:18:44.884Z,18.50
2023-01-11T22:21:11.813Z,17.42
2023-01-11T22:55:00.354Z,23.98
2023-01-11T23:17:10.259Z,16.40
2023-01-11T23:19:37.292Z,14.90
2023-01-11T23:22:04.238Z,17.38
2023-01-11T23:24:31.198Z,20.20
2023-01-11T23:27:04.124Z,15.40
2023-01-11T23:29:31.116Z,13.50
2023-01-11T23:31:58.179Z,17.08
2023-01-11T23:34:25.298Z,16.92
2023-01-11T23:36:52.255Z,14.35
2023-01-11T23:39:19.248Z,15.80
2023-01-11T23:41:46.239Z,15.63
2023-01-11T23:44:13.208Z,16.00
2023-01-11T23:46:40.290Z,15.27
2023-01-11T23:49:07.246Z,14.48
2023-01-11T23:51:34.214Z,14.80
2023-01-11T23:54:01.153Z,14.77
2023-01-11T23:56:28.141Z,12.70
2023-01-11T23:58:55.121Z,15.50
